Time;durP1;ratioP1;P1;durP2;ratioP2;P2;SDS_P1;SDS_P2;PMS_P1;PMS_P2;Temp;Humidity;BMP_temperature;BMP_pressure;BME280_temperature;BME280_humidity;BME280_pressure;Samples;Min_cycle;Max_cycle;Signal;HPM_P1;HPM_P2
2023/08/03 00:02:19;;;;;;;3.37;1.83;;;;;;;27.32;41.67;98629.97;4484044;32;33208;-66
2023/08/03 00:04:47;;;;;;;3.95;2.33;;;;;;;27.30;41.70;98624.78;4485345;32;34439;-65
2023/08/03 00:07:14;;;;;;;3.40;1.85;;;;;;;27.30;41.82;98618.50;4485285;32;33559;-66
2023/08/03 00:09:43;;;;;;;5.43;1.62;;;;;;;27.29;41.78;98622.34;4485370;32;33700;-67
2023/08/03 00:12:11;;;;;;;3.62;1.77;;;;;;;27.30;41.68;98623.97;4485126;32;33527;-66
2023/08/03 00:14:38;;;;;;;4.32;1.67;;;;;;;27.30;41.68;98627.53;4485234;32;33319;-67
2023/08/03 00:17:06;;;;;;;3.55;1.70;;;;;;;27.30;41.72;98618.50;4471090;32;33766;-67
2023/08/03 00:19:34;;;;;;;4.28;1.83;;;;;;;27.29;41.72;98625.09;4485122;32;33890;-67
2023/08/03 00:22:01;;;;;;;4.10;1.75;;;;;;;27.29;41.70;98623.16;4485243;32;33922;-66
2023/08/03 00:24:28;;;;;;;3.08;1.70;;;;;;;27.29;41.75;98622.34;4485250;32;34145;-66
2023/08/03 00:26:56;;;;;;;3.12;1.62;;;;;;;27.28;41.83;98632.47;4485012;32;33735;-66
2023/08/03 00:29:24;;;;;;;4.97;1.75;;;;;;;27.28;41.77;98629.75;4485383;32;33845;-66
2023/08/03 00:31:51;;;;;;;4.30;1.85;;;;;;;27.28;41.77;98631.63;4484918;32;33911;-67
2023/08/03 00:34:19;;;;;;;4.28;2.17;;;;;;;27.28;41.76;98629.75;4485020;32;33165;-67
2023/08/03 00:36:48;;;;;;;6.97;2.22;;;;;;;27.28;41.79;98631.63;4485093;32;33721;-66
2023/08/03 00:39:15;;;;;;;3.17;1.73;;;;;;;27.28;41.81;98637.97;4485180;32;33904;-66
2023/08/03 00:41:43;;;;;;;4.85;1.85;;;;;;;27.27;41.94;98633.56;4485057;32;33610;-66
2023/08/03 00:44:11;;;;;;;6.70;2.28;;;;;;;27.28;42.05;98629.75;4485213;32;33582;-67
2023/08/03 00:46:38;;;;;;;3.85;1.75;;;;;;;27.29;42.00;98630.56;4470986;32;34783;-67
2023/08/03 00:49:08;;;;;;;8.13;2.58;;;;;;;27.28;42.01;98624.28;4485101;32;33500;-65
2023/08/03 00:51:35;;;;;;;4.68;2.55;;;;;;;27.28;42.01;98620.69;4471068;32;34000;-66
2023/08/03 00:54:07;;;;;;;5.00;2.40;;;;;;;27.28;42.00;98623.41;4485279;32;33623;-66
2023/08/03 00:56:35;;;;;;;4.30;2.50;;;;;;;27.28;42.10;98628.91;4484950;32;33826;-65
2023/08/03 00:59:03;;;;;;;5.10;2.85;;;;;;;27.28;42.12;98637.13;4485191;32;34729;-66
2023/08/03 01:01:30;;;;;;;4.15;2.22;;;;;;;27.27;42.12;98636.31;4484784;32;34466;-66
2023/08/03 01:03:58;;;;;;;3.87;2.15;;;;;;;27.27;42.10;98650.00;4475892;32;33283;-64
2023/08/03 01:06:26;;;;;;;5.93;2.47;;;;;;;27.27;42.16;98652.72;4469183;32;34610;-66
2023/08/03 01:08:54;;;;;;;4.68;2.35;;;;;;;27.26;42.21;98642.06;4469350;32;34023;-67
2023/08/03 01:11:22;;;;;;;4.50;2.30;;;;;;;27.25;42.33;98643.16;4468332;32;34061;-66
2023/08/03 01:13:50;;;;;;;4.62;2.53;;;;;;;27.26;42.27;98637.41;4455172;32;34338;-66
2023/08/03 01:16:19;;;;;;;4.60;2.47;;;;;;;27.25;42.26;98635.78;4468902;32;34922;-66
2023/08/03 01:18:47;;;;;;;4.28;2.20;;;;;;;27.25;42.26;98644.00;4469154;32;33734;-65
2023/08/03 01:21:16;;;;;;;5.22;2.37;;;;;;;27.25;42.30;98637.69;4455007;32;33964;-67
2023/08/03 01:23:44;;;;;;;4.75;2.30;;;;;;;27.24;42.34;98634.13;4468943;32;33449;-66
2023/08/03 01:26:12;;;;;;;5.07;2.45;;;;;;;27.24;42.36;98625.09;4469359;32;34667;-66
2023/08/03 01:28:39;;;;;;;3.97;2.20;;;;;;;27.24;42.42;98630.59;4469174;32;33699;-64
2023/08/03 01:31:06;;;;;;;4.03;2.17;;;;;;;27.23;42.36;98632.47;4474286;32;33811;-67
2023/08/03 01:33:34;;;;;;;4.72;2.58;;;;;;;27.21;42.42;98627.28;4484792;32;32910;-67
2023/08/03 01:36:02;;;;;;;3.15;1.90;;;;;;;27.20;42.45;98628.41;4484650;32;34774;-66
2023/08/03 01:38:30;;;;;;;6.62;2.60;;;;;;;27.21;42.47;98626.47;4483219;32;33845;-65
2023/08/03 01:40:59;;;;;;;5.18;2.33;;;;;;;27.20;42.50;98627.56;4484658;32;33840;-66
2023/08/03 01:43:27;;;;;;;5.12;2.50;;;;;;;27.20;42.53;98624.84;4484750;32;33632;-66
2023/08/03 01:45:55;;;;;;;4.75;2.30;;;;;;;27.20;42.56;98619.38;4483281;32;32764;-67
2023/08/03 01:48:22;;;;;;;3.70;1.90;;;;;;;27.20;42.58;98619.38;4484660;32;34442;-67
2023/08/03 01:50:50;;;;;;;6.10;2.15;;;;;;;27.19;42.62;98615.81;4484636;32;34071;-66
2023/08/03 01:53:17;;;;;;;6.55;2.58;;;;;;;27.18;42.67;98610.59;4484483;32;33209;-67
2023/08/03 01:55:45;;;;;;;3.58;2.00;;;;;;;27.17;42.67;98607.03;4484587;32;34060;-66
2023/08/03 01:58:14;;;;;;;4.87;2.58;;;;;;;27.17;42.69;98606.22;4484579;32;34138;-66
2023/08/03 02:00:42;;;;;;;3.97;2.05;;;;;;;27.17;42.71;98609.78;4484838;32;34425;-67
2023/08/03 02:03:09;;;;;;;4.47;2.20;;;;;;;27.15;42.78;98595.56;4484719;32;34179;-67
2023/08/03 02:05:37;;;;;;;5.50;2.17;;;;;;;27.15;42.85;98600.22;4484261;32;34055;-67
2023/08/03 02:08:05;;;;;;;4.37;2.50;;;;;;;27.15;42.86;98601.03;4484953;32;33918;-66
2023/08/03 02:10:33;;;;;;;4.03;2.30;;;;;;;27.14;42.85;98610.34;4484553;32;33958;-66
2023/08/03 02:13:00;;;;;;;6.40;2.28;;;;;;;27.14;42.86;98604.03;4483965;32;34010;-66
2023/08/03 02:15:28;;;;;;;3.25;1.80;;;;;;;27.13;42.89;98611.44;4484523;32;33923;-66
2023/08/03 02:17:56;;;;;;;4.43;2.00;;;;;;;27.13;42.91;98608.69;4484440;32;34795;-66
2023/08/03 02:20:24;;;;;;;5.50;2.28;;;;;;;27.12;42.93;98612.53;4484279;32;34049;-66
2023/08/03 02:22:51;;;;;;;5.75;2.20;;;;;;;27.11;42.95;98613.63;4484245;32;33608;-67
2023/08/03 02:25:23;;;;;;;5.55;2.47;;;;;;;27.12;43.00;98617.19;4484420;32;34619;-67
2023/08/03 02:27:53;;;;;;;3.75;2.12;;;;;;;27.13;42.97;98621.56;4484191;32;33995;-67
2023/08/03 02:30:21;;;;;;;3.92;2.17;;;;;;;27.11;42.99;98608.16;4484290;31;34267;-66
2023/08/03 02:32:50;;;;;;;4.07;2.12;;;;;;;27.10;43.01;98617.47;4500364;31;34477;-65
2023/08/03 02:35:20;;;;;;;4.45;2.25;;;;;;;27.09;43.01;98615.00;4500242;31;33958;-67
2023/08/03 02:37:48;;;;;;;5.35;2.20;;;;;;;27.08;43.02;98614.19;4500303;31;34479;-66
2023/08/03 02:40:16;;;;;;;4.45;2.20;;;;;;;27.08;43.04;98619.66;4500325;31;33941;-66
2023/08/03 02:42:44;;;;;;;4.68;2.05;;;;;;;27.08;43.06;98619.66;4500108;31;34172;-67
2023/08/03 02:45:12;;;;;;;5.70;2.50;;;;;;;27.08;43.05;98618.81;4500243;31;34824;-67
2023/08/03 02:47:40;;;;;;;3.95;2.37;;;;;;;27.07;43.12;98618.00;4500000;31;34716;-65
2023/08/03 02:50:08;;;;;;;4.37;2.10;;;;;;;27.06;43.09;98619.09;4485927;31;33712;-67
2023/08/03 02:52:36;;;;;;;3.55;1.77;;;;;;;27.06;43.15;98621.84;4499946;31;33454;-67
2023/08/03 02:55:04;;;;;;;4.28;1.95;;;;;;;27.06;43.21;98621.03;4485540;31;34053;-67
2023/08/03 02:57:32;;;;;;;5.05;2.12;;;;;;;27.05;43.17;98616.66;4499993;31;32817;-66
2023/08/03 03:00:00;;;;;;;6.03;2.20;;;;;;;27.06;43.17;98623.75;4500092;31;33917;-65
2023/08/03 03:02:28;;;;;;;4.68;2.15;;;;;;;27.05;43.22;98622.13;4499731;31;33610;-66
2023/08/03 03:04:57;;;;;;;5.55;2.28;;;;;;;27.04;43.20;98624.03;4484452;31;33928;-67
2023/08/03 03:07:25;;;;;;;5.32;2.00;;;;;;;27.04;43.23;98624.03;4470048;32;33268;-66
2023/08/03 03:09:53;;;;;;;6.60;2.37;;;;;;;27.03;43.29;98618.84;4469729;32;34449;-66
2023/08/03 03:12:20;;;;;;;5.07;2.40;;;;;;;27.02;43.33;98622.69;4483768;32;33117;-66
2023/08/03 03:14:48;;;;;;;6.47;2.22;;;;;;;27.01;43.34;98616.38;4484087;32;33607;-66
2023/08/03 03:17:15;;;;;;;6.50;2.20;;;;;;;27.02;43.32;98622.69;4483694;32;33253;-67
2023/08/03 03:19:44;;;;;;;4.20;2.03;;;;;;;27.00;43.38;98625.72;4483942;32;34030;-67
2023/08/03 03:22:11;;;;;;;3.80;1.87;;;;;;;27.01;43.37;98618.31;4483434;32;33600;-66
2023/08/03 03:24:39;;;;;;;3.67;1.65;;;;;;;26.99;43.38;98629.53;4483458;32;34690;-66
2023/08/03 03:27:07;;;;;;;4.93;2.12;;;;;;;26.99;43.42;98632.25;4483639;32;34429;-66
2023/08/03 03:29:35;;;;;;;4.40;2.15;;;;;;;27.00;43.49;98635.81;4483875;32;33871;-66
2023/08/03 03:32:03;;;;;;;3.15;1.83;;;;;;;26.98;43.48;98644.31;4483481;32;34127;-66
2023/08/03 03:34:32;;;;;;;5.90;2.25;;;;;;;26.99;43.45;98645.13;4484291;32;33922;-66
2023/08/03 03:37:00;;;;;;;3.58;1.83;;;;;;;27.00;43.47;98646.75;4485880;32;34004;-67
2023/08/03 03:39:29;;;;;;;4.45;2.20;;;;;;;26.98;43.42;98644.31;4485645;32;33898;-66
2023/08/03 03:41:59;;;;;;;4.37;2.05;;;;;;;26.99;43.39;98648.69;4485776;32;33398;-66
2023/08/03 03:44:27;;;;;;;4.53;2.08;;;;;;;26.99;43.42;98636.91;4484494;32;33829;-66
2023/08/03 03:46:54;;;;;;;3.87;2.10;;;;;;;26.99;43.42;98642.38;4485548;32;34531;-66
2023/08/03 03:49:23;;;;;;;4.00;2.05;;;;;;;26.99;43.44;98640.47;4485726;32;33937;-67
2023/08/03 03:51:50;;;;;;;3.75;1.90;;;;;;;26.98;43.43;98635.28;4485434;32;32867;-66
2023/08/03 03:54:18;;;;;;;4.40;2.00;;;;;;;26.96;43.48;98641.88;4485415;32;34543;-67
2023/08/03 03:56:47;;;;;;;3.40;2.00;;;;;;;26.97;43.46;98639.94;4485446;32;34877;-67
2023/08/03 03:59:15;;;;;;;4.55;2.03;;;;;;;26.96;43.43;98630.91;4485392;32;33790;-65
2023/08/03 04:01:42;;;;;;;4.50;2.28;;;;;;;26.97;43.47;98637.19;4485460;32;33355;-66
2023/08/03 04:04:11;;;;;;;5.25;2.03;;;;;;;26.95;43.48;98636.63;4485312;32;33838;-66
2023/08/03 04:06:38;;;;;;;4.40;2.50;;;;;;;26.96;43.49;98627.34;4485287;32;35036;-67
2023/08/03 04:09:06;;;;;;;4.72;2.42;;;;;;;26.94;43.59;98622.13;4485408;32;33793;-66
2023/08/03 04:11:34;;;;;;;4.57;2.30;;;;;;;26.94;43.58;98624.88;4487131;31;33335;-62
2023/08/03 04:14:01;;;;;;;4.78;2.20;;;;;;;26.94;43.57;98621.31;4485119;32;34018;-63
2023/08/03 04:16:29;;;;;;;4.37;2.45;;;;;;;26.93;43.69;98630.63;4485167;32;34459;-61
2023/08/03 04:18:57;;;;;;;4.25;2.25;;;;;;;26.92;43.74;98640.78;4485185;32;33781;-61
2023/08/03 04:21:24;;;;;;;6.07;2.55;;;;;;;26.92;43.84;98627.09;4484042;32;33402;-63
2023/08/03 04:23:53;;;;;;;4.93;2.60;;;;;;;26.91;43.90;98638.31;4485275;32;33833;-62
2023/08/03 04:26:22;;;;;;;4.70;2.60;;;;;;;26.92;43.84;98626.28;4485228;32;34243;-62
2023/08/03 04:28:49;;;;;;;5.75;2.78;;;;;;;26.89;43.94;98627.63;4485103;32;34333;-63
2023/08/03 04:31:17;;;;;;;5.60;2.47;;;;;;;26.90;43.96;98628.44;4485128;32;33179;-61
2023/08/03 04:33:45;;;;;;;5.20;2.50;;;;;;;26.89;43.96;98632.28;4485030;32;33773;-61
2023/08/03 04:36:12;;;;;;;7.53;2.92;;;;;;;26.89;44.01;98638.59;4484969;32;34019;-63
2023/08/03 04:38:40;;;;;;;6.55;2.85;;;;;;;26.89;43.96;98632.28;4485209;32;33658;-62
2023/08/03 04:41:08;;;;;;;6.03;2.70;;;;;;;26.89;43.96;98635.03;4485178;32;33551;-60
2023/08/03 04:43:36;;;;;;;7.75;3.00;;;;;;;26.89;43.97;98626.81;4485263;32;34325;-61
2023/08/03 04:46:04;;;;;;;5.85;2.65;;;;;;;26.89;44.07;98626.81;4484004;32;34782;-61
2023/08/03 04:48:33;;;;;;;6.10;2.87;;;;;;;26.89;44.06;98615.88;4485141;32;33826;-63
2023/08/03 04:51:03;;;;;;;6.22;2.97;;;;;;;26.87;44.14;98618.88;4484287;32;33064;-62
2023/08/03 04:53:31;;;;;;;4.78;2.70;;;;;;;26.88;44.12;98619.72;4481380;32;33916;-61
2023/08/03 04:55:59;;;;;;;6.28;2.75;;;;;;;26.88;44.11;98625.19;4485407;32;33940;-62
2023/08/03 04:58:27;;;;;;;5.65;3.30;;;;;;;26.88;44.10;98626.00;4484734;32;34233;-62
2023/08/03 05:00:54;;;;;;;5.25;2.80;;;;;;;26.89;44.13;98622.16;4484953;32;34440;-63
2023/08/03 05:03:23;;;;;;;5.65;3.42;;;;;;;26.89;44.19;98637.75;4484922;32;34074;-62
2023/08/03 05:05:51;;;;;;;5.15;2.85;;;;;;;26.89;44.25;98621.34;4484807;32;33906;-61
2023/08/03 05:08:22;;;;;;;5.72;2.95;;;;;;;26.89;44.28;98635.03;4485060;32;34001;-61
2023/08/03 05:10:50;;;;;;;7.45;2.75;;;;;;;26.89;44.27;98635.03;4485168;32;34139;-61
2023/08/03 05:13:18;;;;;;;5.55;2.67;;;;;;;26.87;44.37;98632.56;4484964;32;33575;-61
2023/08/03 05:15:46;;;;;;;7.95;2.83;;;;;;;26.88;44.34;98628.72;4484912;32;34097;-61
2023/08/03 05:18:14;;;;;;;5.12;2.85;;;;;;;26.90;44.39;98639.41;4484796;32;34847;-67
2023/08/03 05:20:42;;;;;;;7.32;3.62;;;;;;;26.90;44.30;98631.19;4484847;32;33271;-62
2023/08/03 05:23:12;;;;;;;7.30;2.60;;;;;;;26.89;44.48;98624.91;4484895;32;33387;-62
2023/08/03 05:25:40;;;;;;;4.43;2.50;;;;;;;26.90;44.36;98634.75;4483375;32;34715;-61
2023/08/03 05:28:08;;;;;;;6.53;3.10;;;;;;;26.91;44.32;98636.41;4483600;32;33918;-62
2023/08/03 05:30:38;;;;;;;6.28;2.85;;;;;;;26.90;44.44;98637.47;4486500;31;33045;-62
2023/08/03 05:33:06;;;;;;;6.93;3.20;;;;;;;26.91;44.58;98633.66;4491417;31;33914;-62
2023/08/03 05:35:33;;;;;;;5.90;3.22;;;;;;;26.89;44.57;98627.63;4484346;32;33867;-67
2023/08/03 05:38:01;;;;;;;7.45;3.25;;;;;;;26.90;44.44;98626.53;4484502;32;33857;-66
2023/08/03 05:40:29;;;;;;;10.48;4.00;;;;;;;26.91;44.51;98636.41;4484387;32;33559;-66
2023/08/03 05:42:56;;;;;;;6.62;3.58;;;;;;;26.92;44.54;98639.97;4484247;32;34497;-61
2023/08/03 05:45:33;;;;;;;4.60;2.70;;;;;;;26.92;44.58;98631.75;4484403;32;33817;-61
2023/08/03 05:48:01;;;;;;;4.80;3.08;;;;;;;26.93;44.51;98631.47;4470012;32;35334;-63
2023/08/03 05:50:29;;;;;;;4.85;3.10;;;;;;;26.93;44.57;98638.84;4457103;32;33459;-62
2023/08/03 05:52:56;;;;;;;6.12;3.22;;;;;;;26.95;44.75;98647.59;4457155;32;34717;-63
2023/08/03 05:55:24;;;;;;;5.43;2.87;;;;;;;26.96;44.85;98643.78;4484264;32;34658;-66
2023/08/03 05:57:51;;;;;;;6.50;3.25;;;;;;;26.97;44.69;98637.19;4484090;32;33835;-62
2023/08/03 06:00:20;;;;;;;5.10;2.85;;;;;;;26.98;44.79;98640.75;4484281;32;34520;-66
2023/08/03 06:02:48;;;;;;;7.47;3.45;;;;;;;26.99;44.86;98639.66;4457343;32;33632;-62
2023/08/03 06:05:37;;;;;;;8.68;2.92;;;;;;;27.00;44.95;98649.50;4470136;32;34649;-66
2023/08/03 06:08:18;;;;;;;6.53;3.60;;;;;;;27.04;45.09;98656.88;4484484;32;34547;-65
2023/08/03 06:10:50;;;;;;;7.80;2.97;;;;;;;27.02;45.12;98658.28;4484484;32;33841;-64
2023/08/03 06:13:19;;;;;;;8.80;3.35;;;;;;;26.99;45.23;98648.69;4470120;32;33543;-63
2023/08/03 06:15:47;;;;;;;9.13;3.40;;;;;;;27.00;45.21;98650.34;4484260;32;34755;-60
2023/08/03 06:18:16;;;;;;;6.82;3.08;;;;;;;27.00;45.18;98650.34;4484076;32;34472;-65
2023/08/03 06:20:45;;;;;;;6.57;3.50;;;;;;;26.99;45.32;98661.56;4470014;32;33423;-67
2023/08/03 06:23:39;;;;;;;7.45;3.45;;;;;;;26.99;45.30;98659.63;4470249;32;33894;-65
2023/08/03 06:26:08;;;;;;;5.85;3.53;;;;;;;27.03;45.28;98660.72;4481810;32;34819;-65
2023/08/03 06:28:36;;;;;;;6.40;3.30;;;;;;;27.00;45.38;98657.72;4457046;32;34610;-66
2023/08/03 06:31:35;;;;;;;8.18;3.00;;;;;;;27.00;45.48;98672.25;4450685;32;195190;-66
2023/08/03 06:34:04;;;;;;;7.78;3.50;;;;;;;27.00;45.58;98680.47;4479831;32;33864;-66
2023/08/03 06:36:31;;;;;;;6.00;2.90;;;;;;;27.00;45.57;98665.91;4482296;32;33718;-67
2023/08/03 06:38:59;;;;;;;5.25;3.08;;;;;;;26.98;45.67;98671.69;4468089;32;33639;-66
2023/08/03 06:41:26;;;;;;;7.60;3.17;;;;;;;27.00;45.71;98682.34;4481926;32;33404;-67
2023/08/03 06:43:54;;;;;;;7.30;3.20;;;;;;;27.00;45.77;98674.13;4482461;32;34080;-64
2023/08/03 06:46:22;;;;;;;5.78;3.15;;;;;;;27.00;45.92;98683.19;4482349;32;33882;-63
2023/08/03 06:48:50;;;;;;;7.78;3.75;;;;;;;27.00;45.97;98687.81;4454873;32;34310;-61
2023/08/03 06:51:18;;;;;;;7.55;3.28;;;;;;;26.99;46.04;98687.00;4467799;32;33656;-61
2023/08/03 06:53:47;;;;;;;8.02;3.60;;;;;;;27.00;45.94;98685.09;4454820;32;33500;-63
2023/08/03 06:56:14;;;;;;;7.78;3.53;;;;;;;27.01;45.85;98684.84;4483145;32;34299;-65
2023/08/03 06:58:42;;;;;;;7.93;3.97;;;;;;;27.01;46.08;98673.06;4456502;32;33984;-71
2023/08/03 07:01:09;;;;;;;6.35;3.20;;;;;;;27.03;45.90;98695.50;4482559;32;34151;-65
2023/08/03 07:03:37;;;;;;;7.10;3.30;;;;;;;27.02;45.79;98704.81;4469350;32;33906;-62
2023/08/03 07:06:05;;;;;;;6.55;3.50;;;;;;;27.04;45.83;98700.69;4472223;32;34137;-62
2023/08/03 07:08:32;;;;;;;8.23;3.65;;;;;;;27.03;45.80;98701.78;4467687;32;34697;-66
2023/08/03 07:11:00;;;;;;;8.02;3.58;;;;;;;27.02;45.85;98702.88;4467401;32;33052;-62
2023/08/03 07:13:28;;;;;;;6.87;3.55;;;;;;;27.04;45.86;98705.34;4466639;32;34291;-61
2023/08/03 07:15:55;;;;;;;5.87;3.12;;;;;;;27.03;45.76;98710.00;4467721;32;33823;-61
2023/08/03 07:18:23;;;;;;;6.87;3.60;;;;;;;27.04;45.64;98713.56;4467627;32;33496;-62
2023/08/03 07:20:51;;;;;;;10.00;3.55;;;;;;;27.04;45.59;98719.84;4466601;32;32986;-62
2023/08/03 07:23:18;;;;;;;6.45;3.53;;;;;;;27.05;45.56;98720.69;4467467;32;33487;-62
2023/08/03 07:25:46;;;;;;;8.65;4.03;;;;;;;27.05;45.53;98717.97;4467575;32;35230;-66
2023/08/03 07:28:13;;;;;;;5.82;3.58;;;;;;;27.04;45.49;98728.06;4467887;32;34128;-66
2023/08/03 07:30:41;;;;;;;7.72;3.30;;;;;;;27.05;45.48;98728.91;4470248;32;33511;-65
2023/08/03 07:33:08;;;;;;;9.15;3.70;;;;;;;27.05;45.42;98718.78;4483393;32;33895;-65
2023/08/03 07:35:37;;;;;;;6.85;3.15;;;;;;;27.04;45.34;98736.28;4483488;32;33997;-62
2023/08/03 07:38:04;;;;;;;7.85;3.35;;;;;;;27.05;45.28;98743.41;4483867;32;34039;-62
2023/08/03 07:40:32;;;;;;;5.43;3.22;;;;;;;27.05;45.23;98740.69;4483412;32;33128;-66
2023/08/03 07:43:00;;;;;;;10.40;3.60;;;;;;;27.05;45.20;98748.06;4483392;32;34230;-65
2023/08/03 07:45:27;;;;;;;6.10;3.40;;;;;;;27.05;45.14;98764.50;4483332;32;34799;-62
2023/08/03 07:47:58;;;;;;;6.55;3.65;;;;;;;27.05;45.07;98764.50;4483112;32;33410;-63
2023/08/03 07:50:26;;;;;;;7.65;3.35;;;;;;;27.04;45.05;98749.97;4483527;32;33462;-63
2023/08/03 07:52:53;;;;;;;5.37;3.05;;;;;;;27.04;45.01;98749.97;4483115;32;33826;-65
2023/08/03 07:55:21;;;;;;;8.95;3.97;;;;;;;27.05;44.96;98748.06;4483283;32;34005;-61
2023/08/03 07:57:49;;;;;;;6.47;3.30;;;;;;;27.04;44.93;98747.22;4483232;32;33647;-67
2023/08/03 08:00:16;;;;;;;6.28;3.05;;;;;;;27.05;44.90;98751.63;4483461;32;32752;-68
2023/08/03 08:02:44;;;;;;;5.00;3.12;;;;;;;27.06;44.89;98763.41;4483017;32;34061;-67
2023/08/03 08:05:12;;;;;;;5.12;3.08;;;;;;;27.05;44.82;98761.75;4483110;32;34805;-61
2023/08/03 08:07:39;;;;;;;5.03;2.87;;;;;;;27.05;44.78;98757.09;4482978;32;34103;-64
2023/08/03 08:10:11;;;;;;;4.85;2.95;;;;;;;27.05;44.75;98768.06;4483027;32;33248;-63
2023/08/03 08:12:38;;;;;;;6.37;3.42;;;;;;;27.05;44.72;98765.31;4483260;32;33467;-66
2023/08/03 08:15:06;;;;;;;5.93;3.50;;;;;;;27.05;44.68;98762.59;4482773;32;33702;-66
2023/08/03 08:17:33;;;;;;;5.37;2.95;;;;;;;27.05;44.70;98768.06;4482902;32;34112;-63
2023/08/03 08:20:01;;;;;;;5.93;3.25;;;;;;;27.06;44.64;98769.69;4468923;32;34395;-66
2023/08/03 08:22:29;;;;;;;5.37;3.08;;;;;;;27.06;44.62;98779.81;4485070;32;33901;-62
2023/08/03 08:24:57;;;;;;;5.15;3.10;;;;;;;27.05;44.60;98784.47;4485133;32;33644;-68
2023/08/03 08:27:25;;;;;;;6.62;3.33;;;;;;;27.07;44.59;98781.47;4485298;32;33795;-64
2023/08/03 08:29:52;;;;;;;5.35;3.08;;;;;;;27.08;44.55;98796.78;4485071;32;33447;-61
2023/08/03 08:32:20;;;;;;;4.93;3.00;;;;;;;27.07;44.54;98798.69;4485108;32;33153;-62
2023/08/03 08:34:47;;;;;;;4.55;2.75;;;;;;;27.06;44.52;98799.00;4485136;32;33923;-67
2023/08/03 08:37:15;;;;;;;5.82;2.85;;;;;;;27.07;44.50;98798.69;4485048;32;33898;-61
2023/08/03 08:39:43;;;;;;;6.43;2.95;;;;;;;27.07;44.48;98798.69;4485401;32;34162;-61
2023/08/03 08:42:13;;;;;;;5.40;3.20;;;;;;;27.07;44.46;98800.62;4485534;32;33426;-63
2023/08/03 08:44:41;;;;;;;7.85;3.10;;;;;;;27.06;44.45;98804.47;4485234;32;33834;-62
2023/08/03 08:47:08;;;;;;;5.12;2.90;;;;;;;27.08;44.41;98802.25;4485190;32;33425;-66
2023/08/03 08:49:36;;;;;;;5.70;3.17;;;;;;;27.07;44.39;98803.38;4470957;32;34237;-62
2023/08/03 08:52:09;;;;;;;5.75;2.90;;;;;;;27.08;44.37;98811.31;4471353;32;34635;-62
2023/08/03 08:54:37;;;;;;;5.93;2.90;;;;;;;27.08;44.33;98815.94;4458183;32;35150;-66
2023/08/03 08:57:08;;;;;;;6.30;3.50;;;;;;;27.08;44.32;98811.31;4485086;32;34253;-65
2023/08/03 08:59:59;;;;;;;4.62;2.80;;;;;;;27.08;44.31;98811.31;4485121;32;33706;-64
2023/08/03 09:02:27;;;;;;;5.50;3.30;;;;;;;27.10;44.25;98806.41;4485009;32;33843;-61
2023/08/03 09:04:55;;;;;;;4.95;2.85;;;;;;;27.09;44.26;98809.41;4470941;32;33928;-64
2023/08/03 09:07:22;;;;;;;4.78;2.58;;;;;;;27.09;44.24;98810.25;4484766;32;34012;-68
2023/08/03 09:09:50;;;;;;;4.60;2.62;;;;;;;27.08;44.25;98805.84;4484788;32;34371;-61
2023/08/03 09:12:27;;;;;;;4.18;2.72;;;;;;;27.08;44.23;98810.47;4458123;32;34492;-61
2023/08/03 09:14:58;;;;;;;5.85;3.22;;;;;;;27.09;44.21;98802.03;4484948;32;34492;-65
2023/08/03 09:17:26;;;;;;;5.20;2.92;;;;;;;27.10;44.16;98805.59;4484840;32;33824;-67
2023/08/03 09:19:54;;;;;;;5.00;2.85;;;;;;;27.09;44.18;98799.31;4484946;32;33475;-64
2023/08/03 09:22:25;;;;;;;5.22;3.08;;;;;;;27.08;44.16;98808.59;4484793;32;33704;-68
2023/08/03 09:25:00;;;;;;;6.37;3.03;;;;;;;27.08;44.14;98808.59;4471144;32;33893;-68
2023/08/03 09:27:28;;;;;;;4.85;3.00;;;;;;;27.09;44.15;98812.13;4470730;32;33607;-62
2023/08/03 09:29:59;;;;;;;6.43;3.60;;;;;;;27.09;44.11;98813.00;4470722;32;34215;-62
2023/08/03 09:32:31;;;;;;;5.53;2.97;;;;;;;27.08;44.13;98822.28;4470057;32;34073;-61
2023/08/03 09:34:59;;;;;;;6.07;3.33;;;;;;;27.10;44.09;98824.75;4484617;32;33653;-66
2023/08/03 09:37:34;;;;;;;4.22;2.80;;;;;;;27.09;44.09;98832.16;4484714;32;34523;-66
2023/08/03 09:40:05;;;;;;;5.15;2.72;;;;;;;27.10;44.09;98828.31;4471015;32;33427;-62
2023/08/03 09:42:33;;;;;;;5.22;2.85;;;;;;;27.09;44.05;98834.91;4484730;32;33865;-62
2023/08/03 09:45:03;;;;;;;4.10;2.87;;;;;;;27.09;44.08;98829.41;4484692;32;35028;-67
2023/08/03 09:47:50;;;;;;;4.70;2.67;;;;;;;27.10;44.05;98843.94;4484565;32;33654;-61
2023/08/03 09:50:18;;;;;;;;;;;;;;;27.09;44.05;98834.03;4485054;32;33345;-64
2023/08/03 09:52:46;;;;;;;4.82;2.90;;;;;;;27.19;43.83;98834.87;4484746;32;34277;-62
2023/08/03 09:55:23;;;;;;;6.35;2.70;;;;;;;27.11;43.96;98838.16;4484305;32;34647;-62
2023/08/03 09:57:56;;;;;;;5.18;3.05;;;;;;;27.09;44.04;98850.47;4458041;32;34263;-64
2023/08/03 10:00:24;;;;;;;4.75;2.60;;;;;;;27.08;44.05;98852.41;4484401;32;33596;-65
2023/08/03 10:02:55;;;;;;;4.97;2.67;;;;;;;27.08;44.03;98860.59;4470468;32;34376;-66
2023/08/03 10:05:24;;;;;;;5.00;2.80;;;;;;;27.08;44.00;98855.13;4470370;32;33544;-65
2023/08/03 10:07:59;;;;;;;4.60;2.90;;;;;;;27.09;44.01;98853.22;4470491;32;33979;-62
2023/08/03 10:10:27;;;;;;;5.10;2.95;;;;;;;27.09;44.00;98839.53;4470938;32;32989;-67
2023/08/03 10:13:01;;;;;;;4.40;2.37;;;;;;;27.10;43.97;98857.63;4457561;32;34718;-62
2023/08/03 10:15:28;;;;;;;5.05;2.80;;;;;;;27.09;43.97;98845.84;4470493;32;34240;-66
2023/08/03 10:17:56;;;;;;;5.35;3.10;;;;;;;27.10;43.93;98847.47;4484444;32;34698;-64
2023/08/03 10:20:24;;;;;;;4.28;2.70;;;;;;;27.10;43.91;98846.66;4484215;32;34116;-61
2023/08/03 10:23:15;;;;;;;4.43;2.75;;;;;;;27.10;43.91;98850.22;4470108;32;34752;-66
2023/08/03 10:25:59;;;;;;;5.65;3.00;;;;;;;27.12;43.88;98845.28;4484309;32;34059;-63
2023/08/03 10:28:27;;;;;;;5.05;2.95;;;;;;;27.12;43.88;98856.22;4470317;32;33615;-61
2023/08/03 10:31:05;;;;;;;4.97;2.50;;;;;;;27.10;43.90;98860.34;4484108;32;33141;-67
2023/08/03 10:33:50;;;;;;;5.00;2.87;;;;;;;27.11;43.91;98851.03;4484374;32;33992;-67
2023/08/03 10:36:27;;;;;;;5.18;2.70;;;;;;;27.10;43.89;98850.22;4483990;32;34025;-62
2023/08/03 10:38:59;;;;;;;5.62;2.72;;;;;;;27.10;43.88;98844.75;4484397;32;33780;-66
2023/08/03 10:41:36;;;;;;;4.32;2.42;;;;;;;27.08;43.92;98849.66;4484147;32;34163;-62
2023/08/03 10:44:06;;;;;;;4.10;2.53;;;;;;;27.09;43.90;98856.81;4470739;32;33799;-67
2023/08/03 10:46:36;;;;;;;3.42;2.12;;;;;;;27.10;43.89;98868.56;4484163;32;34757;-65
2023/08/03 10:49:25;;;;;;;4.45;2.47;;;;;;;27.09;43.91;98861.44;4469781;32;34555;-68
2023/08/03 10:51:54;;;;;;;5.32;2.60;;;;;;;27.12;43.83;98869.91;4484121;32;33687;-67
2023/08/03 10:54:28;;;;;;;3.97;2.75;;;;;;;27.10;43.86;98863.91;4484147;32;33420;-67
2023/08/03 10:57:16;;;;;;;4.70;2.53;;;;;;;27.11;43.86;98868.28;4469895;32;33726;-67
2023/08/03 10:59:45;;;;;;;5.72;2.55;;;;;;;27.13;43.83;98863.34;4484053;32;34620;-67
2023/08/03 11:02:25;;;;;;;4.57;2.40;;;;;;;27.11;43.84;98871.03;4484141;32;33354;-68
2023/08/03 11:04:53;;;;;;;4.60;2.40;;;;;;;27.10;43.87;98865.84;4484008;32;34036;-63
2023/08/03 11:07:40;;;;;;;5.03;2.72;;;;;;;27.11;43.81;98873.75;4469835;32;34580;-67
2023/08/03 11:10:10;;;;;;;4.32;2.42;;;;;;;27.14;43.77;98875.97;4483807;32;33389;-66
2023/08/03 11:12:42;;;;;;;4.15;2.50;;;;;;;27.12;43.79;98869.09;4483864;32;34249;-63
2023/08/03 11:15:14;;;;;;;4.15;2.28;;;;;;;27.11;43.81;98881.16;4469545;32;33490;-65
2023/08/03 11:20:32;;;;;;;4.62;2.65;;;;;;;27.12;43.82;98891.00;4471838;32;34647;-67
2023/08/03 11:22:59;;;;;;;4.12;2.40;;;;;;;27.13;43.77;98892.66;4456792;32;33444;-67
2023/08/03 11:25:27;;;;;;;3.75;2.35;;;;;;;27.12;43.79;98904.69;4483738;32;34157;-67
2023/08/03 11:27:54;;;;;;;4.10;2.53;;;;;;;27.11;43.79;98909.34;4483546;32;34404;-67
2023/08/03 11:30:22;;;;;;;4.35;2.62;;;;;;;27.12;43.78;98915.66;4483766;32;33950;-68
2023/08/03 11:32:58;;;;;;;4.30;2.35;;;;;;;27.13;43.77;98914.56;4483542;32;34192;-68
2023/08/03 11:35:27;;;;;;;3.90;2.40;;;;;;;27.13;43.77;98918.13;4469906;32;34005;-68
2023/08/03 11:37:54;;;;;;;4.20;2.55;;;;;;;27.13;43.75;98931.81;4456480;32;33892;-67
2023/08/03 11:40:22;;;;;;;4.43;2.80;;;;;;;27.13;43.75;98929.06;4469095;32;34917;-68
2023/08/03 11:42:50;;;;;;;4.10;2.47;;;;;;;27.13;43.75;98937.28;4483591;32;33363;-67
2023/08/03 11:45:17;;;;;;;4.25;2.25;;;;;;;27.14;43.73;98930.72;4483413;32;33557;-64
2023/08/03 11:47:46;;;;;;;4.12;2.50;;;;;;;27.13;43.73;98936.47;4456335;32;34015;-67